sensor_id;sensor_type;location;lat;lon;timestamp;temperature;humidity
2757;DHT22;1386;50.862;6.494;2022-11-11T01:50:27;8.60;99.90
2757;DHT22;1386;50.862;6.494;2022-11-11T01:52:54;8.60;99.90
2757;DHT22;1386;50.862;6.494;2022-11-11T01:55:22;8.50;99.90
2757;DHT22;1386;50.862;6.494;2022-11-11T01:57:53;8.50;99.90
2757;DHT22;1386;50.862;6.494;2022-11-11T07:13:18;8.10;99.90
2757;DHT22;1386;50.862;6.494;2022-11-11T07:15:54;8.10;99.90
2757;DHT22;1386;50.862;6.494;2022-11-11T07:18:22;8.10;99.90
2757;DHT22;1386;50.862;6.494;2022-11-11T07:21:24;8.10;99.90
2757;DHT22;1386;50.862;6.494;2022-11-11T07:24:08;8.10;99.90
2757;DHT22;1386;50.862;6.494;2022-11-11T07:26:35;8.10;99.90
2757;DHT22;1386;50.862;6.494;2022-11-11T07:29:03;8.10;99.90
2757;DHT22;1386;50.862;6.494;2022-11-11T07:31:30;8.10;99.90
2757;DHT22;1386;50.862;6.494;2022-11-11T07:33:57;8.10;99.90
2757;DHT22;1386;50.862;6.494;2022-11-11T07:36:24;8.10;99.90
2757;DHT22;1386;50.862;6.494;2022-11-11T07:38:51;8.20;99.90
2757;DHT22;1386;50.862;6.494;2022-11-11T07:41:18;8.20;99.90
2757;DHT22;1386;50.862;6.494;2022-11-11T07:43:44;8.20;99.90
2757;DHT22;1386;50.862;6.494;2022-11-11T07:46:13;8.30;99.90
2757;DHT22;1386;50.862;6.494;2022-11-11T07:48:40;8.30;99.90
2757;DHT22;1386;50.862;6.494;2022-11-11T07:51:06;8.30;99.90
2757;DHT22;1386;50.862;6.494;2022-11-11T07:53:34;8.40;99.90
2757;DHT22;1386;50.862;6.494;2022-11-11T07:56:00;8.50;99.90
2757;DHT22;1386;50.862;6.494;2022-11-11T07:58:27;8.50;99.90
2757;DHT22;1386;50.862;6.494;2022-11-11T08:00:54;8.50;99.90
2757;DHT22;1386;50.862;6.494;2022-11-11T08:03:22;8.60;99.90
2757;DHT22;1386;50.862;6.494;2022-11-11T08:05:49;8.60;99.90
2757;DHT22;1386;50.862;6.494;2022-11-11T08:08:16;8.70;99.90
2757;DHT22;1386;50.862;6.494;2022-11-11T08:10:45;8.70;99.90
2757;DHT22;1386;50.862;6.494;2022-11-11T08:13:12;8.80;99.90
2757;DHT22;1386;50.862;6.494;2022-11-11T08:15:56;8.80;99.90
2757;DHT22;1386;50.862;6.494;2022-11-11T08:18:29;8.90;99.90
2757;DHT22;1386;50.862;6.494;2022-11-11T08:20:57;9.00;99.90
2757;DHT22;1386;50.862;6.494;2022-11-11T08:23:24;9.00;99.90
2757;DHT22;1386;50.862;6.494;2022-11-11T08:25:57;9.10;99.90
2757;DHT22;1386;50.862;6.494;2022-11-11T08:28:29;9.10;99.90
2757;DHT22;1386;50.862;6.494;2022-11-11T08:31:02;9.10;99.90
2757;DHT22;1386;50.862;6.494;2022-11-11T08:33:30;9.20;99.90
2757;DHT22;1386;50.862;6.494;2022-11-11T08:36:11;9.20;99.90
2757;DHT22;1386;50.862;6.494;2022-11-11T08:38:53;9.20;99.90
2757;DHT22;1386;50.862;6.494;2022-11-11T08:41:20;9.20;99.90
2757;DHT22;1386;50.862;6.494;2022-11-11T08:43:57;9.20;99.90
2757;DHT22;1386;50.862;6.494;2022-11-11T08:46:25;9.20;99.90
2757;DHT22;1386;50.862;6.494;2022-11-11T08:48:53;9.30;99.90
2757;DHT22;1386;50.862;6.494;2022-11-11T08:51:20;9.30;99.90
2757;DHT22;1386;50.862;6.494;2022-11-11T08:53:47;9.30;99.90
2757;DHT22;1386;50.862;6.494;2022-11-11T08:56:14;9.30;99.90
2757;DHT22;1386;50.862;6.494;2022-11-11T08:58:41;9.30;99.90
2757;DHT22;1386;50.862;6.494;2022-11-11T09:01:10;9.30;99.90
2757;DHT22;1386;50.862;6.494;2022-11-11T09:03:38;9.40;99.90
2757;DHT22;1386;50.862;6.494;2022-11-11T09:06:09;9.40;99.90
2757;DHT22;1386;50.862;6.494;2022-11-11T09:08:36;9.40;99.90
2757;DHT22;1386;50.862;6.494;2022-11-11T09:11:03;9.50;99.90
2757;DHT22;1386;50.862;6.494;2022-11-11T09:13:30;9.50;99.90
2757;DHT22;1386;50.862;6.494;2022-11-11T09:15:57;9.60;99.90
2757;DHT22;1386;50.862;6.494;2022-11-11T09:18:24;9.60;99.90
2757;DHT22;1386;50.862;6.494;2022-11-11T09:20:51;9.70;99.90
2757;DHT22;1386;50.862;6.494;2022-11-11T09:23:19;9.80;99.90
2757;DHT22;1386;50.862;6.494;2022-11-11T09:25:46;9.80;99.90
2757;DHT22;1386;50.862;6.494;2022-11-11T09:28:13;9.90;99.90
2757;DHT22;1386;50.862;6.494;2022-11-11T09:30:40;9.90;99.90
2757;DHT22;1386;50.862;6.494;2022-11-11T09:33:07;10.00;99.90
2757;DHT22;1386;50.862;6.494;2022-11-11T09:35:34;10.10;99.90
2757;DHT22;1386;50.862;6.494;2022-11-11T09:38:01;10.20;99.90
2757;DHT22;1386;50.862;6.494;2022-11-11T09:40:49;10.20;99.90
2757;DHT22;1386;50.862;6.494;2022-11-11T09:43:26;10.30;99.90
2757;DHT22;1386;50.862;6.494;2022-11-11T09:46:05;10.40;99.90
2757;DHT22;1386;50.862;6.494;2022-11-11T09:49:00;10.60;99.90
2757;DHT22;1386;50.862;6.494;2022-11-11T09:51:31;10.80;99.90
2757;DHT22;1386;50.862;6.494;2022-11-11T10:40:52;12.10;99.90
2757;DHT22;1386;50.862;6.494;2022-11-11T10:43:22;12.30;99.90
2757;DHT22;1386;50.862;6.494;2022-11-11T10:45:55;12.30;99.90
2757;DHT22;1386;50.862;6.494;2022-11-11T10:48:32;12.30;99.90
2757;DHT22;1386;50.862;6.494;2022-11-11T10:51:02;12.30;99.90
2757;DHT22;1386;50.862;6.494;2022-11-11T10:53:37;12.30;99.90
2757;DHT22;1386;50.862;6.494;2022-11-11T10:56:11;12.30;99.90
2757;DHT22;1386;50.862;6.494;2022-11-11T10:58:42;12.30;99.90
2757;DHT22;1386;50.862;6.494;2022-11-11T11:01:16;12.50;99.90
2757;DHT22;1386;50.862;6.494;2022-11-11T11:03:50;12.50;99.90
2757;DHT22;1386;50.862;6.494;2022-11-11T11:06:24;12.60;99.90
2757;DHT22;1386;50.862;6.494;2022-11-11T11:08:58;12.60;99.90
2757;DHT22;1386;50.862;6.494;2022-11-11T11:11:32;12.70;99.90
2757;DHT22;1386;50.862;6.494;2022-11-11T11:14:05;12.70;99.90
2757;DHT22;1386;50.862;6.494;2022-11-11T11:16:37;12.80;99.90
2757;DHT22;1386;50.862;6.494;2022-11-11T11:19:16;12.90;99.90
2757;DHT22;1386;50.862;6.494;2022-11-11T11:25:18;13.10;99.90
2757;DHT22;1386;50.862;6.494;2022-11-11T11:27:46;13.20;99.90
2757;DHT22;1386;50.862;6.494;2022-11-11T11:30:16;13.30;99.90
2757;DHT22;1386;50.862;6.494;2022-11-11T11:32:55;13.40;99.90
2757;DHT22;1386;50.862;6.494;2022-11-11T11:35:35;13.50;99.90
2757;DHT22;1386;50.862;6.494;2022-11-11T11:38:04;13.60;99.90
2757;DHT22;1386;50.862;6.494;2022-11-11T11:40:49;13.60;99.90
2757;DHT22;1386;50.862;6.494;2022-11-11T11:43:24;13.70;99.90
2757;DHT22;1386;50.862;6.494;2022-11-11T11:45:54;13.80;99.90
2757;DHT22;1386;50.862;6.494;2022-11-11T11:48:34;13.90;99.90
2757;DHT22;1386;50.862;6.494;2022-11-11T11:51:44;13.90;99.90
2757;DHT22;1386;50.862;6.494;2022-11-11T11:57:33;14.00;99.90
2757;DHT22;1386;50.862;6.494;2022-11-11T12:00:04;14.10;99.90
2757;DHT22;1386;50.862;6.494;2022-11-11T12:02:49;14.20;99.90
2757;DHT22;1386;50.862;6.494;2022-11-11T12:05:25;14.30;99.90
2757;DHT22;1386;50.862;6.494;2022-11-11T12:08:06;14.40;99.90
2757;DHT22;1386;50.862;6.494;2022-11-11T12:10:43;14.40;99.90
2757;DHT22;1386;50.862;6.494;2022-11-11T12:13:23;14.50;99.90
2757;DHT22;1386;50.862;6.494;2022-11-11T12:15:59;14.50;99.90
2757;DHT22;1386;50.862;6.494;2022-11-11T12:19:22;14.60;99.90
2757;DHT22;1386;50.862;6.494;2022-11-11T12:21:57;14.70;99.90
2757;DHT22;1386;50.862;6.494;2022-11-11T12:24:43;14.80;99.90
2757;DHT22;1386;50.862;6.494;2022-11-11T12:27:20;14.90;99.90
2757;DHT22;1386;50.862;6.494;2022-11-11T12:30:01;15.00;99.90
2757;DHT22;1386;50.862;6.494;2022-11-11T12:32:38;14.90;99.90
2757;DHT22;1386;50.862;6.494;2022-11-11T12:35:25;15.00;99.90
2757;DHT22;1386;50.862;6.494;2022-11-11T12:38:01;15.00;99.90
2757;DHT22;1386;50.862;6.494;2022-11-11T12:40:37;15.10;99.90
2757;DHT22;1386;50.862;6.494;2022-11-11T12:43:17;15.10;99.90
2757;DHT22;1386;50.862;6.494;2022-11-11T12:45:53;15.20;99.90
2757;DHT22;1386;50.862;6.494;2022-11-11T12:48:38;15.20;99.90
2757;DHT22;1386;50.862;6.494;2022-11-11T12:51:14;15.20;99.90
2757;DHT22;1386;50.862;6.494;2022-11-11T12:53:51;15.20;99.90
2757;DHT22;1386;50.862;6.494;2022-11-11T12:56:25;15.30;99.90
2757;DHT22;1386;50.862;6.494;2022-11-11T12:58:58;15.40;99.90
2757;DHT22;1386;50.862;6.494;2022-11-11T13:01:37;15.40;99.90
2757;DHT22;1386;50.862;6.494;2022-11-11T13:04:42;15.50;99.90
2757;DHT22;1386;50.862;6.494;2022-11-11T13:10:38;15.50;99.90
2757;DHT22;1386;50.862;6.494;2022-11-11T13:13:24;15.50;99.90
2757;DHT22;1386;50.862;6.494;2022-11-11T13:15:54;15.60;99.90
2757;DHT22;1386;50.862;6.494;2022-11-11T13:18:27;15.70;99.90
2757;DHT22;1386;50.862;6.494;2022-11-11T13:20:58;15.60;99.90
2757;DHT22;1386;50.862;6.494;2022-11-11T13:23:27;15.70;99.90
2757;DHT22;1386;50.862;6.494;2022-11-11T13:25:57;15.70;99.90
2757;DHT22;1386;50.862;6.494;2022-11-11T13:28:29;15.70;99.90
2757;DHT22;1386;50.862;6.494;2022-11-11T13:31:13;15.70;99.90
2757;DHT22;1386;50.862;6.494;2022-11-11T13:33:44;15.70;99.90
2757;DHT22;1386;50.862;6.494;2022-11-11T13:36:14;15.70;99.90
2757;DHT22;1386;50.862;6.494;2022-11-11T13:38:45;15.70;99.90
2757;DHT22;1386;50.862;6.494;2022-11-11T13:41:20;15.70;99.90
2757;DHT22;1386;50.862;6.494;2022-11-11T13:43:49;15.60;99.90
2757;DHT22;1386;50.862;6.494;2022-11-11T13:46:32;15.60;99.90
2757;DHT22;1386;50.862;6.494;2022-11-11T13:49:02;15.60;99.90
2757;DHT22;1386;50.862;6.494;2022-11-11T13:51:35;15.50;99.90
2757;DHT22;1386;50.862;6.494;2022-11-11T13:54:05;15.40;99.90
2757;DHT22;1386;50.862;6.494;2022-11-11T13:56:38;15.40;99.90
2757;DHT22;1386;50.862;6.494;2022-11-11T13:59:06;15.30;99.90
2757;DHT22;1386;50.862;6.494;2022-11-11T20:38:27;8.60;99.90
2757;DHT22;1386;50.862;6.494;2022-11-11T20:40:57;8.50;99.90
2757;DHT22;1386;50.862;6.494;2022-11-11T20:43:24;8.50;99.90
2757;DHT22;1386;50.862;6.494;2022-11-11T20:45:54;8.50;99.90
2757;DHT22;1386;50.862;6.494;2022-11-11T20:48:21;8.50;99.90
2757;DHT22;1386;50.862;6.494;2022-11-11T20:50:48;8.50;99.90
2757;DHT22;1386;50.862;6.494;2022-11-11T20:53:15;8.40;99.90
2757;DHT22;1386;50.862;6.494;2022-11-11T20:55:43;8.40;99.90
2757;DHT22;1386;50.862;6.494;2022-11-11T20:58:10;8.40;99.90
2757;DHT22;1386;50.862;6.494;2022-11-11T21:01:01;8.30;99.90
2757;DHT22;1386;50.862;6.494;2022-11-11T21:03:29;8.30;99.90
2757;DHT22;1386;50.862;6.494;2022-11-11T21:06:02;8.30;99.90
2757;DHT22;1386;50.862;6.494;2022-11-11T21:08:29;8.30;99.90
2757;DHT22;1386;50.862;6.494;2022-11-11T21:10:58;8.20;99.90
2757;DHT22;1386;50.862;6.494;2022-11-11T21:13:26;8.10;99.90
2757;DHT22;1386;50.862;6.494;2022-11-11T21:16:01;8.00;99.90
2757;DHT22;1386;50.862;6.494;2022-11-11T21:18:28;7.90;99.90
2757;DHT22;1386;50.862;6.494;2022-11-11T21:20:55;7.90;99.90
2757;DHT22;1386;50.862;6.494;2022-11-11T21:23:22;7.80;99.90
2757;DHT22;1386;50.862;6.494;2022-11-11T21:25:49;7.80;99.90
2757;DHT22;1386;50.862;6.494;2022-11-11T21:28:17;7.80;99.90
2757;DHT22;1386;50.862;6.494;2022-11-11T21:30:44;7.80;99.90
2757;DHT22;1386;50.862;6.494;2022-11-11T21:33:11;7.80;99.90
2757;DHT22;1386;50.862;6.494;2022-11-11T21:35:38;7.70;99.90
2757;DHT22;1386;50.862;6.494;2022-11-11T21:38:05;7.70;99.90
2757;DHT22;1386;50.862;6.494;2022-11-11T21:40:32;7.70;99.90
2757;DHT22;1386;50.862;6.494;2022-11-11T21:42:59;7.70;99.90
2757;DHT22;1386;50.862;6.494;2022-11-11T21:45:30;7.60;99.90
2757;DHT22;1386;50.862;6.494;2022-11-11T21:47:57;7.60;99.90
2757;DHT22;1386;50.862;6.494;2022-11-11T21:50:24;7.50;99.90
2757;DHT22;1386;50.862;6.494;2022-11-11T21:52:50;7.50;99.90
2757;DHT22;1386;50.862;6.494;2022-11-11T21:55:17;7.40;99.90
2757;DHT22;1386;50.862;6.494;2022-11-11T21:57:44;7.40;99.90
2757;DHT22;1386;50.862;6.494;2022-11-11T22:00:12;7.40;99.90
2757;DHT22;1386;50.862;6.494;2022-11-11T22:02:40;7.40;99.90
2757;DHT22;1386;50.862;6.494;2022-11-11T22:05:07;7.30;99.90
2757;DHT22;1386;50.862;6.494;2022-11-11T22:07:34;7.30;99.90
2757;DHT22;1386;50.862;6.494;2022-11-11T22:10:01;7.30;99.90
2757;DHT22;1386;50.862;6.494;2022-11-11T22:12:28;7.20;99.90
2757;DHT22;1386;50.862;6.494;2022-11-11T22:14:55;7.20;99.90
2757;DHT22;1386;50.862;6.494;2022-11-11T22:17:22;7.20;99.90
2757;DHT22;1386;50.862;6.494;2022-11-11T22:19:50;7.20;99.90
2757;DHT22;1386;50.862;6.494;2022-11-11T22:22:17;7.10;99.90
2757;DHT22;1386;50.862;6.494;2022-11-11T22:24:44;7.10;99.90
2757;DHT22;1386;50.862;6.494;2022-11-11T22:27:11;7.10;99.90
2757;DHT22;1386;50.862;6.494;2022-11-11T22:29:37;7.00;99.90
2757;DHT22;1386;50.862;6.494;2022-11-11T22:32:04;7.10;99.90
2757;DHT22;1386;50.862;6.494;2022-11-11T22:34:31;7.10;99.90
2757;DHT22;1386;50.862;6.494;2022-11-11T22:36:59;7.10;99.90
2757;DHT22;1386;50.862;6.494;2022-11-11T22:39:27;7.10;99.90
2757;DHT22;1386;50.862;6.494;2022-11-11T22:41:54;7.10;99.90
2757;DHT22;1386;50.862;6.494;2022-11-11T22:47:35;7.00;99.90
2757;DHT22;1386;50.862;6.494;2022-11-11T22:50:02;7.00;99.90
2757;DHT22;1386;50.862;6.494;2022-11-11T22:52:31;7.00;99.90
2757;DHT22;1386;50.862;6.494;2022-11-11T22:54:57;7.00;99.90
2757;DHT22;1386;50.862;6.494;2022-11-11T22:57:24;7.00;99.90
2757;DHT22;1386;50.862;6.494;2022-11-11T22:59:55;7.10;99.90
2757;DHT22;1386;50.862;6.494;2022-11-11T23:02:22;7.10;99.90
2757;DHT22;1386;50.862;6.494;2022-11-11T23:04:48;7.10;99.90
2757;DHT22;1386;50.862;6.494;2022-11-11T23:07:16;7.00;99.90
2757;DHT22;1386;50.862;6.494;2022-11-11T23:09:44;7.00;99.90
2757;DHT22;1386;50.862;6.494;2022-11-11T23:12:11;6.90;99.90
2757;DHT22;1386;50.862;6.494;2022-11-11T23:14:38;6.90;99.90
2757;DHT22;1386;50.862;6.494;2022-11-11T23:17:04;6.90;99.90
2757;DHT22;1386;50.862;6.494;2022-11-11T23:19:31;6.90;99.90
2757;DHT22;1386;50.862;6.494;2022-11-11T23:21:59;6.90;99.90
2757;DHT22;1386;50.862;6.494;2022-11-11T23:24:26;6.80;99.90
2757;DHT22;1386;50.862;6.494;2022-11-11T23:26:54;6.80;99.90
2757;DHT22;1386;50.862;6.494;2022-11-11T23:29:21;6.80;99.90
2757;DHT22;1386;50.862;6.494;2022-11-11T23:31:47;6.80;99.90
2757;DHT22;1386;50.862;6.494;2022-11-11T23:34:14;6.80;99.90
2757;DHT22;1386;50.862;6.494;2022-11-11T23:36:41;6.80;99.90
2757;DHT22;1386;50.862;6.494;2022-11-11T23:39:08;6.70;99.90
2757;DHT22;1386;50.862;6.494;2022-11-11T23:41:35;6.70;99.90
2757;DHT22;1386;50.862;6.494;2022-11-11T23:44:03;6.70;99.90
2757;DHT22;1386;50.862;6.494;2022-11-11T23:46:30;6.60;99.90
2757;DHT22;1386;50.862;6.494;2022-11-11T23:48:57;6.60;99.90
2757;DHT22;1386;50.862;6.494;2022-11-11T23:51:24;6.60;99.90
2757;DHT22;1386;50.862;6.494;2022-11-11T23:53:51;6.60;99.90
2757;DHT22;1386;50.862;6.494;2022-11-11T23:56:18;6.60;99.90
2757;DHT22;1386;50.862;6.494;2022-11-11T23:58:45;6.60;99.90
